Time;durP1;ratioP1;P1;durP2;ratioP2;P2;SDS_P1;SDS_P2;PMS_P1;PMS_P2;Temp;Humidity;BMP_temperature;BMP_pressure;BME280_temperature;BME280_humidity;BME280_pressure;Samples;Min_cycle;Max_cycle;Signal;HPM_P1;HPM_P2
2022/12/01 00:01:37;;;;;;;;;;;;;;;41.99;nan;101267.16;5082562;28;19916;-59
2022/12/01 00:04:04;;;;;;;;;;;;;;;42.14;nan;101268.22;5087003;28;19923;-59
2022/12/01 00:06:30;;;;;;;;;;;;;;;41.99;nan;101264.31;5089559;28;20382;-59
2022/12/01 00:11:40;;;;;;;;;;;;;;;41.52;nan;101268.19;5090083;28;19928;-59
2022/12/01 00:14:07;;;;;;;;;;;;;;;41.32;nan;101271.41;5086204;28;20397;-58
2022/12/01 00:16:33;;;;;;;;;;;;;;;41.18;nan;101269.03;5082341;28;20027;-58
2022/12/01 00:18:59;;;;;;;;;;;;;;;41.04;nan;101266.72;5092775;28;19920;-60
2022/12/01 00:21:26;;;;;;;;;;;;;;;40.98;nan;101265.72;5080538;28;19926;-59
2022/12/01 00:23:53;;;;;;;;;;;;;;;40.75;nan;101270.53;5088031;28;19919;-58
2022/12/01 00:26:20;;;;;;;;;;;;;;;40.50;nan;101273.47;5083901;28;19921;-58
2022/12/01 00:28:50;;;;;;;;;;;;;;;40.27;nan;101271.78;5091549;28;19965;-59
2022/12/01 00:31:17;;;;;;;;;;;;;;;39.94;nan;101276.06;5079203;28;19920;-59
2022/12/01 00:33:43;;;;;;;;;;;;;;;39.76;nan;101270.94;5089022;28;19916;-58
2022/12/01 00:36:10;;;;;;;;;;;;;;;39.47;nan;101268.13;5086310;28;19920;-59
2022/12/01 00:38:36;;;;;;;;;;;;;;;39.33;nan;101271.41;5081581;28;20374;-59
2022/12/01 00:41:02;;;;;;;;;;;;;;;39.09;nan;101263.13;5092394;28;19928;-57
2022/12/01 00:43:29;;;;;;;;;;;;;;;38.98;nan;101280.47;5080435;28;19916;-58
2022/12/01 00:45:56;;;;;;;;;;;;;;;38.82;nan;101276.84;5087117;28;20309;-59
2022/12/01 00:48:23;;;;;;;;;;;;;;;38.59;nan;101272.91;5087569;28;19917;-58
2022/12/01 00:50:50;;;;;;;;;;;;;;;38.46;nan;101274.09;5079153;28;19982;-59
2022/12/01 00:53:16;;;;;;;;;;;;;;;38.25;nan;101269.75;5086929;28;20309;-59
2022/12/01 00:55:42;;;;;;;;;;;;;;;38.12;nan;101271.66;5088431;28;19928;-59
2022/12/01 00:58:08;;;;;;;;;;;;;;;38.36;nan;101273.13;5079672;28;19915;-59
2022/12/01 01:00:39;;;;;;;;;;;;;;;38.20;nan;101273.91;5061669;28;19928;-57
2022/12/01 01:03:06;;;;;;;;;;;;;;;38.17;nan;101269.09;5073499;28;20044;-59
2022/12/01 01:05:36;;;;;;;;;;;;;;;37.91;nan;101276.59;5070491;28;20302;-59
2022/12/01 01:08:06;;;;;;;;;;;;;;;37.93;nan;101273.31;5063769;28;19925;-57
2022/12/01 01:10:32;;;;;;;;;;;;;;;38.06;nan;101283.53;5103864;27;20406;-61
2022/12/01 01:12:58;;;;;;;;;;;;;;;38.03;nan;101278.72;5070719;28;19983;-59
2022/12/01 01:15:25;;;;;;;;;;;;;;;38.05;nan;101281.91;5073308;28;19924;-59
2022/12/01 01:17:51;;;;;;;;;;;;;;;38.00;nan;101273.94;5069604;28;20019;-58
2022/12/01 01:20:18;;;;;;;;;;;;;;;38.01;nan;101283.25;5070576;28;20071;-59
2022/12/01 01:22:44;;;;;;;;;;;;;;;37.95;nan;101288.66;5064801;28;19928;-59
2022/12/01 01:25:10;;;;;;;;;;;;;;;37.93;nan;101296.81;5065854;28;20379;-60
2022/12/01 01:27:36;;;;;;;;;;;;;;;37.97;nan;101296.72;5072780;28;19929;-59
2022/12/01 01:30:03;;;;;;;;;;;;;;;37.79;nan;101309.28;5069061;28;20085;-59
2022/12/01 01:32:31;;;;;;;;;;;;;;;37.72;nan;101302.94;5072455;28;20340;-60
2022/12/01 01:34:57;;;;;;;;;;;;;;;37.60;nan;101300.75;5062564;28;19920;-59
2022/12/01 01:37:24;;;;;;;;;;;;;;;37.49;nan;101313.13;5067982;28;19925;-60
2022/12/01 01:39:50;;;;;;;;;;;;;;;37.45;nan;101306.72;5069080;28;19955;-59
2022/12/01 01:42:18;;;;;;;;;;;;;;;37.45;nan;101312.41;5069535;28;20290;-59
2022/12/01 01:44:47;;;;;;;;;;;;;;;37.41;nan;101310.88;5068424;28;19920;-60
2022/12/01 01:47:14;;;;;;;;;;;;;;;37.29;nan;101315.16;5068542;28;20008;-58
2022/12/01 01:49:41;;;;;;;;;;;;;;;37.16;nan;101317.78;5072147;28;19926;-59
2022/12/01 01:52:07;;;;;;;;;;;;;;;37.09;nan;101323.59;5063407;28;20355;-60
2022/12/01 01:54:36;;;;;;;;;;;;;;;37.05;nan;101320.03;5072428;28;19924;-59
2022/12/01 01:57:04;;;;;;;;;;;;;;;36.99;nan;101318.16;5065713;28;19924;-60
2022/12/01 01:59:31;;;;;;;;;;;;;;;36.97;nan;101314.91;5072784;27;19928;-61
2022/12/01 02:02:06;;;;;;;;;;;;;;;36.85;nan;101320.00;5061229;28;19917;-61
2022/12/01 02:04:34;;;;;;;;;;;;;;;36.73;nan;101314.91;5067166;28;19925;-61
2022/12/01 02:07:00;;;;;;;;;;;;;;;36.73;nan;101312.06;5073747;28;19920;-60
2022/12/01 02:09:28;;;;;;;;;;;;;;;36.61;nan;101319.13;5067409;28;19921;-62
2022/12/01 02:12:05;;;;;;;;;;;;;;;36.27;nan;101316.44;5059894;28;20002;-61
2022/12/01 02:14:32;;;;;;;;;;;;;;;35.99;nan;101314.00;5066437;28;19963;-59
2022/12/01 02:17:09;;;;;;;;;;;;;;;36.19;nan;101316.97;5066986;28;19921;-60
2022/12/01 02:19:38;;;;;;;;;;;;;;;36.25;nan;101318.88;5066252;28;19920;-60
2022/12/01 02:22:17;;;;;;;;;;;;;;;36.26;nan;101323.28;5082678;28;19963;-59
2022/12/01 02:24:54;;;;;;;;;;;;;;;36.37;nan;101330.88;5065466;28;19920;-59
2022/12/01 02:27:24;;;;;;;;;;;;;;;36.44;nan;101333.59;5067252;28;19929;-59
2022/12/01 02:29:59;;;;;;;;;;;;;;;36.40;nan;101333.63;5070153;28;19920;-61
2022/12/01 02:32:30;;;;;;;;;;;;;;;36.37;nan;101337.34;5065495;28;19982;-60
2022/12/01 02:35:00;;;;;;;;;;;;;;;36.19;nan;101334.75;5068535;28;19928;-61
2022/12/01 02:37:41;;;;;;;;;;;;;;;36.11;nan;101333.25;5071759;28;20003;-58
2022/12/01 02:40:07;;;;;;;;;;;;;;;36.12;nan;101334.06;5074759;28;19929;-60
2022/12/01 02:42:53;;;;;;;;;;;;;;;36.10;nan;101337.31;5068085;28;19932;-59
2022/12/01 02:45:31;;;;;;;;;;;;;;;36.01;nan;101331.34;5066054;28;20432;-61
2022/12/01 02:48:00;;;;;;;;;;;;;;;36.00;nan;101338.25;5068863;28;20374;-61
2022/12/01 02:50:28;;;;;;;;;;;;;;;36.02;nan;101330.94;5067663;28;19920;-61
2022/12/01 02:52:54;;;;;;;;;;;;;;;35.97;nan;101327.78;5064933;28;20043;-61
2022/12/01 02:55:21;;;;;;;;;;;;;;;35.99;nan;101326.13;5071462;28;20073;-59
2022/12/01 02:57:47;;;;;;;;;;;;;;;35.91;nan;101333.13;5074108;28;19932;-61
2022/12/01 03:00:14;;;;;;;;;;;;;;;36.00;nan;101336.22;5069361;28;20134;-61
2022/12/01 03:02:43;;;;;;;;;;;;;;;36.06;nan;101342.19;5065544;28;20030;-61
2022/12/01 03:05:13;;;;;;;;;;;;;;;35.98;nan;101340.72;5064277;28;19927;-60
2022/12/01 03:07:48;;;;;;;;;;;;;;;36.06;nan;101345.03;5076300;28;19920;-61
2022/12/01 03:10:27;;;;;;;;;;;;;;;35.88;nan;101347.28;5069503;28;19970;-59
2022/12/01 03:13:02;;;;;;;;;;;;;;;35.70;nan;101353.16;5072057;28;19920;-60
2022/12/01 03:15:44;;;;;;;;;;;;;;;35.48;nan;101355.44;5071851;28;19942;-59
2022/12/01 03:18:10;;;;;;;;;;;;;;;35.64;nan;101354.84;5069850;28;20054;-61
2022/12/01 03:20:42;;;;;;;;;;;;;;;35.70;nan;101348.28;5069011;28;19943;-59
2022/12/01 03:23:13;;;;;;;;;;;;;;;35.68;nan;101349.94;5069128;28;20378;-58
2022/12/01 03:25:41;;;;;;;;;;;;;;;35.70;nan;101351.13;5061543;28;19920;-59
2022/12/01 03:28:09;;;;;;;;;;;;;;;35.66;nan;101358.84;5061026;28;20384;-59
2022/12/01 03:30:36;;;;;;;;;;;;;;;35.61;nan;101356.50;5092022;27;19920;-59
2022/12/01 03:33:07;;;;;;;;;;;;;;;35.40;nan;101362.38;5067994;28;19924;-59
2022/12/01 03:35:47;;;;;;;;;;;;;;;35.34;nan;101364.03;5071336;28;19924;-63
2022/12/01 03:38:18;;;;;;;;;;;;;;;35.20;nan;101370.66;5068636;28;19920;-58
2022/12/01 03:40:47;;;;;;;;;;;;;;;35.29;nan;101361.66;5069340;28;19921;-59
2022/12/01 03:43:17;;;;;;;;;;;;;;;35.45;nan;101361.13;5072461;28;19945;-59
2022/12/01 03:45:44;;;;;;;;;;;;;;;35.38;nan;101362.00;5059678;28;20001;-60
2022/12/01 03:48:10;;;;;;;;;;;;;;;35.48;nan;101368.75;5054069;28;19971;-60
2022/12/01 03:50:49;;;;;;;;;;;;;;;35.52;nan;101372.34;5055737;28;19925;-60
2022/12/01 03:53:23;;;;;;;;;;;;;;;35.37;nan;101383.00;5055041;28;19931;-61
2022/12/01 03:55:57;;;;;;;;;;;;;;;35.37;nan;101383.00;5057336;28;20008;-62
2022/12/01 03:58:27;;;;;;;;;;;;;;;35.33;nan;101387.84;5055429;28;21621;-58
2022/12/01 04:00:56;;;;;;;;;;;;;;;35.33;nan;101396.34;5065687;28;19983;-59
2022/12/01 04:03:24;;;;;;;;;;;;;;;35.36;nan;101387.84;5062795;28;20469;-58
2022/12/01 04:05:50;;;;;;;;;;;;;;;35.26;nan;101397.22;5062885;28;19933;-59
2022/12/01 04:08:16;;;;;;;;;;;;;;;35.26;nan;101394.41;5062145;28;19925;-59
2022/12/01 04:10:42;;;;;;;;;;;;;;;35.24;nan;101396.84;5059647;28;20386;-58
2022/12/01 04:13:21;;;;;;;;;;;;;;;35.15;nan;101396.50;5065015;28;19916;-58
2022/12/01 04:15:49;;;;;;;;;;;;;;;35.12;nan;101391.69;5060912;28;19977;-57
2022/12/01 04:18:15;;;;;;;;;;;;;;;35.10;nan;101386.47;5065238;28;19928;-59
2022/12/01 04:20:42;;;;;;;;;;;;;;;35.04;nan;101379.66;5061725;28;19921;-59
2022/12/01 04:23:08;;;;;;;;;;;;;;;34.93;nan;101384.59;5069446;28;19932;-60
2022/12/01 04:25:35;;;;;;;;;;;;;;;34.98;nan;101386.97;5062069;28;19982;-60
2022/12/01 04:28:01;;;;;;;;;;;;;;;34.86;nan;101390.31;5068822;28;19927;-61
2022/12/01 04:30:27;;;;;;;;;;;;;;;34.97;nan;101391.00;5062432;28;19921;-61
2022/12/01 04:32:53;;;;;;;;;;;;;;;35.03;nan;101383.72;5071869;28;19916;-61
2022/12/01 04:35:20;;;;;;;;;;;;;;;34.95;nan;101382.16;5075168;28;19924;-61
2022/12/01 04:37:46;;;;;;;;;;;;;;;34.79;nan;101390.31;5068711;28;19940;-62
2022/12/01 04:40:12;;;;;;;;;;;;;;;34.83;nan;101385.44;5074091;28;19929;-58
2022/12/01 04:42:38;;;;;;;;;;;;;;;34.82;nan;101383.84;5063232;28;19921;-59
2022/12/01 04:45:05;;;;;;;;;;;;;;;34.78;nan;101385.91;5072550;28;21408;-61
2022/12/01 04:47:31;;;;;;;;;;;;;;;34.79;nan;101387.50;5070957;28;19944;-60
2022/12/01 04:49:57;;;;;;;;;;;;;;;34.66;nan;101380.75;5069412;28;19920;-60
2022/12/01 04:52:24;;;;;;;;;;;;;;;34.43;nan;101379.28;5061498;28;19927;-60
2022/12/01 04:54:50;;;;;;;;;;;;;;;34.27;nan;101378.94;5068266;28;19920;-60
2022/12/01 04:57:16;;;;;;;;;;;;;;;34.34;nan;101370.44;5071339;28;20002;-60
2022/12/01 04:59:42;;;;;;;;;;;;;;;34.28;nan;101365.63;5065555;28;19924;-63
2022/12/01 05:02:09;;;;;;;;;;;;;;;34.29;nan;101373.69;5066057;28;19921;-62
2022/12/01 05:04:37;;;;;;;;;;;;;;;34.41;nan;101375.25;5066535;28;19928;-59
2022/12/01 05:07:03;;;;;;;;;;;;;;;34.24;nan;101368.47;5060717;28;19916;-60
2022/12/01 05:09:30;;;;;;;;;;;;;;;34.30;nan;101369.66;5060027;28;20279;-61
2022/12/01 05:11:56;;;;;;;;;;;;;;;33.94;nan;101369.06;5067972;28;19921;-61
2022/12/01 05:14:22;;;;;;;;;;;;;;;34.16;nan;101369.75;5071158;28;19928;-63
2022/12/01 05:16:49;;;;;;;;;;;;;;;34.29;nan;101373.69;5075116;28;19920;-59
2022/12/01 05:21:59;;;;;;;;;;;;;;;34.14;nan;101378.63;5061026;28;19928;-58
2022/12/01 05:24:26;;;;;;;;;;;;;;;34.13;nan;101367.75;5061670;28;19921;-62
2022/12/01 05:26:52;;;;;;;;;;;;;;;34.12;nan;101363.31;5061237;28;19924;-60
2022/12/01 05:29:18;;;;;;;;;;;;;;;34.16;nan;101370.56;5060868;28;19928;-62
2022/12/01 05:31:45;;;;;;;;;;;;;;;34.24;nan;101371.31;5059568;28;19921;-61
2022/12/01 05:34:11;;;;;;;;;;;;;;;34.15;nan;101379.44;5058906;28;19921;-60
2022/12/01 05:36:38;;;;;;;;;;;;;;;33.97;nan;101378.72;5061286;28;19921;-61
2022/12/01 05:39:04;;;;;;;;;;;;;;;33.98;nan;101380.31;5060458;28;19999;-59
2022/12/01 05:41:30;;;;;;;;;;;;;;;33.92;nan;101380.72;5055652;28;19917;-61
2022/12/01 05:43:59;;;;;;;;;;;;;;;33.81;nan;101382.75;5057972;28;19916;-60
2022/12/01 05:46:26;;;;;;;;;;;;;;;33.82;nan;101378.72;5057048;28;19990;-62
2022/12/01 05:48:52;;;;;;;;;;;;;;;33.87;nan;101375.50;5055117;28;19931;-60
2022/12/01 05:51:18;;;;;;;;;;;;;;;33.93;nan;101373.88;5090135;27;20065;-60
2022/12/01 05:53:45;;;;;;;;;;;;;;;33.92;nan;101377.91;5062556;28;20073;-59
2022/12/01 05:56:11;;;;;;;;;;;;;;;33.97;nan;101378.72;5058302;28;19924;-61
2022/12/01 05:58:37;;;;;;;;;;;;;;;33.91;nan;101376.28;5059239;28;20409;-60
2022/12/01 06:01:07;;;;;;;;;;;;;;;33.85;nan;101371.50;5060816;28;20147;-62
2022/12/01 06:03:33;;;;;;;;;;;;;;;33.77;nan;101369.91;5061790;28;19932;-62
2022/12/01 06:05:59;;;;;;;;;;;;;;;33.70;nan;101379.16;5060191;28;19921;-62
2022/12/01 06:08:26;;;;;;;;;;;;;;;33.60;nan;101378.00;5066653;28;19939;-61
2022/12/01 06:10:53;;;;;;;;;;;;;;;33.43;nan;101373.22;5069138;28;20353;-62
2022/12/01 06:13:20;;;;;;;;;;;;;;;33.03;nan;101385.69;5066133;28;20046;-61
2022/12/01 06:15:54;;;;;;;;;;;;;;;33.13;nan;101375.63;5067352;28;19927;-61
2022/12/01 06:18:20;;;;;;;;;;;;;;;33.47;nan;101373.19;5068247;28;19916;-60
2022/12/01 06:20:46;;;;;;;;;;;;;;;33.59;nan;101362.28;5072148;28;19931;-60
2022/12/01 06:23:13;;;;;;;;;;;;;;;33.61;nan;101376.78;5101482;27;20470;-58
2022/12/01 06:25:39;;;;;;;;;;;;;;;33.71;nan;101386.41;5071125;28;19952;-59
2022/12/01 06:28:05;;;;;;;;;;;;;;;33.66;nan;101381.19;5072045;28;19974;-58
2022/12/01 06:30:32;;;;;;;;;;;;;;;33.54;nan;101392.91;5072690;28;19927;-61
2022/12/01 06:32:58;;;;;;;;;;;;;;;33.54;nan;101387.25;5073026;28;20008;-59
2022/12/01 06:35:24;;;;;;;;;;;;;;;33.50;nan;101392.91;5072593;28;19920;-59
2022/12/01 06:37:52;;;;;;;;;;;;;;;33.05;nan;101397.38;5072799;28;20455;-59
2022/12/01 06:40:18;;;;;;;;;;;;;;;33.03;nan;101400.56;5072576;28;19924;-58
2022/12/01 06:42:44;;;;;;;;;;;;;;;33.21;nan;101397.75;5072081;28;19925;-60
2022/12/01 06:45:11;;;;;;;;;;;;;;;33.29;nan;101402.19;5072395;28;19927;-60
2022/12/01 06:47:37;;;;;;;;;;;;;;;33.21;nan;101403.38;5072812;28;19916;-60
2022/12/01 06:50:07;;;;;;;;;;;;;;;33.27;nan;101396.16;5070711;28;20062;-59
2022/12/01 06:52:33;;;;;;;;;;;;;;;33.24;nan;101399.78;5066963;28;19925;-58
2022/12/01 06:55:00;;;;;;;;;;;;;;;33.18;nan;101395.75;5072780;28;19920;-59
2022/12/01 06:57:26;;;;;;;;;;;;;;;33.21;nan;101397.75;5072722;28;19927;-59
2022/12/01 06:59:52;;;;;;;;;;;;;;;33.25;nan;101400.59;5072199;28;20005;-57
2022/12/01 07:02:19;;;;;;;;;;;;;;;33.21;nan;101399.75;5072931;28;20016;-59
2022/12/01 07:04:45;;;;;;;;;;;;;;;33.18;nan;101390.09;5073487;28;19951;-58
2022/12/01 07:07:11;;;;;;;;;;;;;;;33.24;nan;101394.16;5074270;28;19920;-60
2022/12/01 07:09:38;;;;;;;;;;;;;;;33.33;nan;101397.38;5073367;28;19917;-58
2022/12/01 07:12:05;;;;;;;;;;;;;;;33.21;nan;101406.19;5073239;28;20290;-60
2022/12/01 07:14:31;;;;;;;;;;;;;;;33.13;nan;101409.44;5073015;28;19956;-57
2022/12/01 07:16:58;;;;;;;;;;;;;;;33.33;nan;101403.00;5089422;28;19999;-58
2022/12/01 07:19:24;;;;;;;;;;;;;;;33.22;nan;101393.75;5076942;28;19920;-60
2022/12/01 07:21:50;;;;;;;;;;;;;;;33.08;nan;101390.94;5085011;28;20340;-58
2022/12/01 07:24:16;;;;;;;;;;;;;;;33.03;nan;101383.66;5083454;28;19916;-57
2022/12/01 07:26:43;;;;;;;;;;;;;;;32.99;nan;101373.63;5076896;28;19982;-57
2022/12/01 07:29:09;;;;;;;;;;;;;;;33.02;nan;101370.00;5089185;28;19916;-59
2022/12/01 07:31:36;;;;;;;;;;;;;;;33.08;nan;101371.22;5078617;28;19924;-59
2022/12/01 07:34:03;;;;;;;;;;;;;;;33.04;nan;101373.22;5082981;28;19966;-58
2022/12/01 07:36:29;;;;;;;;;;;;;;;33.00;nan;101370.41;5085556;28;19916;-61
2022/12/01 07:38:55;;;;;;;;;;;;;;;33.03;nan;101352.69;5076011;28;19923;-58
2022/12/01 07:41:22;;;;;;;;;;;;;;;33.23;nan;101363.56;5087965;28;19932;-58
2022/12/01 07:43:49;;;;;;;;;;;;;;;33.06;nan;101353.91;5080030;28;19939;-59
2022/12/01 07:46:17;;;;;;;;;;;;;;;33.04;nan;101356.34;5081007;28;19920;-58
2022/12/01 07:48:44;;;;;;;;;;;;;;;32.91;nan;101353.13;5087732;28;19916;-59
2022/12/01 07:51:11;;;;;;;;;;;;;;;32.75;nan;101352.69;5075996;28;20397;-58
2022/12/01 07:53:38;;;;;;;;;;;;;;;32.71;nan;101354.69;5083719;28;19920;-60
2022/12/01 07:56:05;;;;;;;;;;;;;;;32.72;nan;101357.09;5082990;28;19939;-58
2022/12/01 07:58:31;;;;;;;;;;;;;;;32.75;nan;101359.13;5085976;28;20010;-58
2022/12/01 08:00:57;;;;;;;;;;;;;;;32.82;nan;101360.34;5076315;28;19981;-58
2022/12/01 08:03:24;;;;;;;;;;;;;;;32.84;nan;101369.19;5092357;28;19966;-59
2022/12/01 08:05:57;;;;;;;;;;;;;;;32.72;nan;101361.94;5084305;28;19921;-59
2022/12/01 08:08:24;;;;;;;;;;;;;;;32.59;nan;101367.13;5083213;28;19967;-60
2022/12/01 08:10:50;;;;;;;;;;;;;;;32.42;nan;101377.16;5092897;28;19916;-59
2022/12/01 08:13:17;;;;;;;;;;;;;;;32.36;nan;101380.78;5079212;28;19973;-58
2022/12/01 08:15:43;;;;;;;;;;;;;;;32.36;nan;101372.34;5089408;28;20387;-58
2022/12/01 08:18:09;;;;;;;;;;;;;;;32.32;nan;101379.97;5082571;28;19935;-61
2022/12/01 08:20:36;;;;;;;;;;;;;;;32.41;nan;101369.13;5076139;28;20366;-59
2022/12/01 08:23:03;;;;;;;;;;;;;;;32.31;nan;101375.50;5076350;28;19921;-59
2022/12/01 08:25:29;;;;;;;;;;;;;;;32.30;nan;101377.53;5076495;28;19948;-59
2022/12/01 08:27:55;;;;;;;;;;;;;;;32.39;nan;101377.16;5076700;28;19927;-60
2022/12/01 08:30:22;;;;;;;;;;;;;;;32.36;nan;101367.50;5075440;28;19963;-58
2022/12/01 08:32:48;;;;;;;;;;;;;;;32.15;nan;101370.22;5076696;28;19920;-58
2022/12/01 08:35:14;;;;;;;;;;;;;;;32.19;nan;101367.44;5076616;28;19917;-60
2022/12/01 08:37:41;;;;;;;;;;;;;;;31.98;nan;101362.53;5076547;28;20420;-61
2022/12/01 08:40:07;;;;;;;;;;;;;;;32.06;nan;101366.97;5076575;28;19924;-61
2022/12/01 08:42:33;;;;;;;;;;;;;;;32.00;nan;101365.75;5076423;28;19928;-60
2022/12/01 08:45:00;;;;;;;;;;;;;;;32.11;nan;101366.59;5076478;28;19916;-61
2022/12/01 08:47:29;;;;;;;;;;;;;;;32.14;nan;101361.00;5076207;28;19920;-61
2022/12/01 08:49:55;;;;;;;;;;;;;;;32.15;nan;101373.06;5076234;28;19930;-61
2022/12/01 08:52:21;;;;;;;;;;;;;;;32.05;nan;101365.38;5076332;28;20394;-60
2022/12/01 08:54:47;;;;;;;;;;;;;;;31.96;nan;101362.09;5076055;28;19946;-61
2022/12/01 08:57:14;;;;;;;;;;;;;;;32.07;nan;101374.22;5076279;28;19924;-60
2022/12/01 08:59:43;;;;;;;;;;;;;;;32.09;nan;101375.41;5076108;28;19916;-60
2022/12/01 09:02:13;;;;;;;;;;;;;;;32.04;nan;101373.00;5076280;28;19920;-59
2022/12/01 09:04:40;;;;;;;;;;;;;;;32.01;nan;101373.78;5076054;28;19955;-59
2022/12/01 09:07:09;;;;;;;;;;;;;;;31.73;nan;101380.09;5076051;28;19962;-59
2022/12/01 09:09:35;;;;;;;;;;;;;;;31.74;nan;101375.25;5075820;28;20321;-59
2022/12/01 09:12:02;;;;;;;;;;;;;;;31.88;nan;101366.09;5075838;28;19916;-61
2022/12/01 09:14:28;;;;;;;;;;;;;;;31.87;nan;101368.09;5075967;28;19958;-60
2022/12/01 09:16:54;;;;;;;;;;;;;;;31.89;nan;101360.09;5075447;28;19917;-60
2022/12/01 09:19:21;;;;;;;;;;;;;;;31.86;nan;101356.06;5108492;28;20016;-60
2022/12/01 09:21:47;;;;;;;;;;;;;;;31.82;nan;101351.63;5075707;28;19917;-59
2022/12/01 09:24:14;;;;;;;;;;;;;;;31.75;nan;101365.63;5075740;28;19924;-59
2022/12/01 09:26:41;;;;;;;;;;;;;;;31.46;nan;101370.28;5075450;28;19916;-60
2022/12/01 09:29:08;;;;;;;;;;;;;;;31.22;nan;101361.28;5075517;28;20351;-59
2022/12/01 09:31:35;;;;;;;;;;;;;;;31.67;nan;101363.97;5075418;28;20024;-59
2022/12/01 09:34:03;;;;;;;;;;;;;;;31.44;nan;101372.69;5075499;28;19920;-58
2022/12/01 09:36:30;;;;;;;;;;;;;;;31.72;nan;101369.19;5075361;28;19920;-58
2022/12/01 09:38:56;;;;;;;;;;;;;;;31.75;nan;101374.88;5075311;28;19921;-60
2022/12/01 09:41:29;;;;;;;;;;;;;;;31.71;nan;101370.41;5075324;28;19916;-60
2022/12/01 09:44:00;;;;;;;;;;;;;;;31.65;nan;101355.94;5075407;28;20290;-59
2022/12/01 09:46:32;;;;;;;;;;;;;;;31.66;nan;101351.13;5075236;28;19921;-58
2022/12/01 09:49:01;;;;;;;;;;;;;;;31.76;nan;101345.56;5075265;28;19920;-59
2022/12/01 09:51:27;;;;;;;;;;;;;;;31.70;nan;101340.69;5074987;28;19916;-58
2022/12/01 09:53:58;;;;;;;;;;;;;;;31.61;nan;101337.44;5074806;28;19924;-59
2022/12/01 09:56:25;;;;;;;;;;;;;;;31.66;nan;101335.06;5075129;28;19927;-59
2022/12/01 09:58:56;;;;;;;;;;;;;;;31.60;nan;101335.81;5090800;28;19966;-58
2022/12/01 10:01:34;;;;;;;;;;;;;;;31.64;nan;101347.91;5074936;28;19921;-59
2022/12/01 10:04:23;;;;;;;;;;;;;;;31.66;nan;101339.88;5074967;28;19938;-60
2022/12/01 10:06:56;;;;;;;;;;;;;;;31.65;nan;101344.69;5069401;28;19921;-58
2022/12/01 10:09:35;;;;;;;;;;;;;;;31.55;nan;101346.22;5074804;28;19927;-59
2022/12/01 10:12:11;;;;;;;;;;;;;;;31.49;nan;101345.00;5074718;28;19920;-60
2022/12/01 10:14:37;;;;;;;;;;;;;;;31.46;nan;101337.38;5074696;28;19921;-59
2022/12/01 10:17:13;;;;;;;;;;;;;;;31.18;nan;101337.97;5074437;28;19974;-59
2022/12/01 10:19:45;;;;;;;;;;;;;;;31.25;nan;101343.66;5074592;28;19974;-58
2022/12/01 10:22:14;;;;;;;;;;;;;;;31.34;nan;101345.31;5074379;28;20480;-58
2022/12/01 10:24:49;;;;;;;;;;;;;;;31.45;nan;101340.56;5087725;28;19923;-58
2022/12/01 10:27:34;;;;;;;;;;;;;;;31.51;nan;101345.41;5088070;28;19922;-58
2022/12/01 10:30:03;;;;;;;;;;;;;;;31.36;nan;101346.53;5072396;28;19920;-59
2022/12/01 10:32:37;;;;;;;;;;;;;;;31.36;nan;101338.09;5072416;28;19917;-57
2022/12/01 10:35:04;;;;;;;;;;;;;;;31.48;nan;101336.97;5072352;28;19925;-60
2022/12/01 10:37:30;;;;;;;;;;;;;;;31.40;nan;101338.91;5072218;28;19974;-57
2022/12/01 10:39:57;;;;;;;;;;;;;;;31.30;nan;101350.91;5074013;28;20463;-59
2022/12/01 10:42:35;;;;;;;;;;;;;;;31.34;nan;101343.31;5074155;28;19920;-59
2022/12/01 10:45:03;;;;;;;;;;;;;;;31.30;nan;101345.28;5074418;28;20050;-59
2022/12/01 10:47:30;;;;;;;;;;;;;;;31.24;nan;101346.88;5073663;28;19917;-58
2022/12/01 10:49:57;;;;;;;;;;;;;;;31.24;nan;101338.44;5073890;28;19924;-59
2022/12/01 10:52:39;;;;;;;;;;;;;;;31.22;nan;101347.22;5074043;28;19916;-59
2022/12/01 10:55:26;;;;;;;;;;;;;;;31.16;nan;101351.59;5074004;28;20336;-58
2022/12/01 10:57:54;;;;;;;;;;;;;;;31.14;nan;101353.16;5073769;28;20291;-59
2022/12/01 11:00:22;;;;;;;;;;;;;;;31.13;nan;101354.38;5074009;28;19916;-59
2022/12/01 11:02:48;;;;;;;;;;;;;;;31.16;nan;101350.78;5073780;28;19920;-59
2022/12/01 11:05:21;;;;;;;;;;;;;;;31.06;nan;101348.69;5073792;28;20393;-60
2022/12/01 11:07:48;;;;;;;;;;;;;;;31.01;nan;101351.84;5073774;28;19930;-58
2022/12/01 11:10:17;;;;;;;;;;;;;;;31.11;nan;101353.97;5073795;28;19917;-57
2022/12/01 11:12:55;;;;;;;;;;;;;;;31.04;nan;101349.06;5073627;28;19928;-59
2022/12/01 11:15:27;;;;;;;;;;;;;;;31.08;nan;101354.75;5073696;28;19920;-59
2022/12/01 11:18:00;;;;;;;;;;;;;;;31.16;nan;101350.78;5073400;28;19970;-62
2022/12/01 11:20:28;;;;;;;;;;;;;;;31.16;nan;101350.78;5073629;28;19926;-62
2022/12/01 11:23:14;;;;;;;;;;;;;;;31.20;nan;101354.44;5073517;28;19916;-61
2022/12/01 11:25:40;;;;;;;;;;;;;;;31.09;nan;101351.53;5073644;28;19928;-61
2022/12/01 11:28:18;;;;;;;;;;;;;;;31.08;nan;101354.75;5073667;28;19959;-60
2022/12/01 11:30:45;;;;;;;;;;;;;;;31.08;nan;101351.94;5073431;28;19927;-58
2022/12/01 11:33:14;;;;;;;;;;;;;;;31.05;nan;101344.25;5073386;28;19923;-58
2022/12/01 11:35:45;;;;;;;;;;;;;;;31.01;nan;101349.06;5075980;28;19978;-58
2022/12/01 11:38:18;;;;;;;;;;;;;;;31.02;nan;101351.47;5093662;28;19965;-59
2022/12/01 11:40:46;;;;;;;;;;;;;;;31.07;nan;101337.09;5093570;28;19943;-59
2022/12/01 11:43:21;;;;;;;;;;;;;;;31.08;nan;101349.94;5093758;28;20024;-58
2022/12/01 11:45:47;;;;;;;;;;;;;;;31.13;nan;101345.94;5093344;28;20327;-57
2022/12/01 11:48:19;;;;;;;;;;;;;;;31.01;nan;101357.47;5093385;28;19979;-60
2022/12/01 11:51:04;;;;;;;;;;;;;;;31.09;nan;101348.72;5093696;28;20000;-58
2022/12/01 11:53:32;;;;;;;;;;;;;;;31.07;nan;101347.50;5093273;28;19927;-59
2022/12/01 11:56:16;;;;;;;;;;;;;;;30.92;nan;101341.78;5093322;28;19920;-59
2022/12/01 11:58:44;;;;;;;;;;;;;;;30.74;nan;101338.03;5093251;28;19920;-58
2022/12/01 12:01:13;;;;;;;;;;;;;;;30.77;nan;101340.06;5093401;28;19999;-59
2022/12/01 12:03:53;;;;;;;;;;;;;;;30.77;nan;101345.66;5093323;28;19954;-59
2022/12/01 12:06:25;;;;;;;;;;;;;;;30.92;nan;101346.59;5093286;28;20404;-59
2022/12/01 12:08:51;;;;;;;;;;;;;;;31.03;nan;101341.84;5093337;28;19981;-56
2022/12/01 12:11:21;;;;;;;;;;;;;;;30.95;nan;101349.44;5093194;28;19920;-58
2022/12/01 12:13:58;;;;;;;;;;;;;;;30.80;nan;101363.72;5093284;28;20015;-58
2022/12/01 12:16:39;;;;;;;;;;;;;;;30.76;nan;101366.50;5093270;28;19931;-57
2022/12/01 12:19:24;;;;;;;;;;;;;;;30.71;nan;101368.88;5093083;28;19920;-58
2022/12/01 12:21:59;;;;;;;;;;;;;;;30.65;nan;101371.19;5093165;28;19928;-59
2022/12/01 12:24:29;;;;;;;;;;;;;;;30.70;nan;101361.63;5093144;28;19926;-59
2022/12/01 12:27:03;;;;;;;;;;;;;;;30.61;nan;101375.94;5093176;28;19981;-59
2022/12/01 12:29:39;;;;;;;;;;;;;;;30.64;nan;101370.41;5093225;28;19972;-58
2022/12/01 12:32:23;;;;;;;;;;;;;;;30.75;nan;101370.50;5093008;28;19920;-57
2022/12/01 12:35:15;;;;;;;;;;;;;;;30.76;nan;101377.72;5093119;28;19924;-58
2022/12/01 12:37:59;;;;;;;;;;;;;;;30.76;nan;101372.13;5092982;28;19999;-59
2022/12/01 12:40:46;;;;;;;;;;;;;;;30.44;nan;101379.38;5092915;28;19920;-58
2022/12/01 12:43:24;;;;;;;;;;;;;;;30.57;nan;101375.09;5093245;28;19920;-58
2022/12/01 12:46:00;;;;;;;;;;;;;;;30.64;nan;101380.81;5092910;28;20397;-59
2022/12/01 12:48:44;;;;;;;;;;;;;;;30.70;nan;101395.28;5095874;28;19973;-59
2022/12/01 12:51:17;;;;;;;;;;;;;;;30.73;nan;101398.16;5096591;28;19926;-58
2022/12/01 12:54:19;;;;;;;;;;;;;;;30.63;nan;101396.03;5096132;28;19947;-58
2022/12/01 12:56:47;;;;;;;;;;;;;;;30.65;nan;101393.66;5053907;28;20294;-59
2022/12/01 12:59:19;;;;;;;;;;;;;;;30.71;nan;101396.94;5088209;28;19923;-59
2022/12/01 13:01:58;;;;;;;;;;;;;;;30.68;nan;101406.91;5081553;28;19966;-59
2022/12/01 13:04:31;;;;;;;;;;;;;;;30.60;nan;101414.41;5076042;28;19924;-58
2022/12/01 13:06:57;;;;;;;;;;;;;;;30.51;nan;101404.69;5075915;28;19916;-59
2022/12/01 13:09:36;;;;;;;;;;;;;;;30.45;nan;101411.84;5075617;28;19920;-59
2022/12/01 13:12:05;;;;;;;;;;;;;;;30.27;nan;101418.06;5075851;28;20386;-58
2022/12/01 13:14:38;;;;;;;;;;;;;;;30.36;nan;101412.16;5076044;28;20440;-59